Time;durP1;ratioP1;P1;durP2;ratioP2;P2;SDS_P1;SDS_P2;PMS_P1;PMS_P2;Temp;Humidity;BMP_temperature;BMP_pressure;BME280_temperature;BME280_humidity;BME280_pressure;Samples;Min_cycle;Max_cycle;Signal;HPM_P1;HPM_P2
2022/01/13 00:01:31;;;;;;;53.65;39.35;;;22.30;83.00;;;;;;1950212;72;21135;-79
2022/01/13 00:04:00;;;;;;;57.03;37.88;;;22.30;83.20;;;;;;1952213;70;21168;-80
2022/01/13 00:06:31;;;;;;;59.00;40.40;;;22.30;83.40;;;;;;1964305;71;21221;-80
2022/01/13 00:09:02;;;;;;;66.22;41.83;;;22.30;83.30;;;;;;1960003;70;21202;-81
2022/01/13 00:11:32;;;;;;;54.73;36.58;;;22.30;83.20;;;;;;1982006;71;21115;-81
2022/01/13 00:14:22;;;;;;;54.48;37.58;;;22.30;83.30;;;;;;1973862;71;21731;-81
2022/01/13 00:21:42;;;;;;;59.18;40.25;;;22.30;83.50;;;;;;1976653;71;21511;-81
2022/01/13 00:24:17;;;;;;;56.42;39.15;;;22.30;83.60;;;;;;1968269;70;21111;-80
2022/01/13 00:26:48;;;;;;;56.23;37.45;;;22.30;83.60;;;;;;1955432;72;21205;-81
2022/01/13 00:29:25;;;;;;;52.00;35.05;;;22.30;83.40;;;;;;1968884;70;21074;-81
2022/01/13 00:31:51;;;;;;;52.17;36.63;;;22.30;83.30;;;;;;1958648;72;21145;-80
2022/01/13 00:34:22;;;;;;;51.92;36.90;;;22.30;83.30;;;;;;1968126;71;21732;-80
2022/01/13 00:36:52;;;;;;;52.93;38.23;;;22.30;83.20;;;;;;1970150;71;21200;-81
2022/01/13 00:39:23;;;;;;;58.02;38.02;;;22.30;83.40;;;;;;1964564;71;21168;-80
2022/01/13 00:41:54;;;;;;;51.73;34.67;;;22.30;83.40;;;;;;1976680;70;21105;-81
2022/01/13 00:44:24;;;;;;;52.90;37.48;;;22.30;83.30;;;;;;1972416;71;21167;-82
2022/01/13 00:46:59;;;;;;;53.25;35.68;;;22.40;83.30;;;;;;1957339;71;21124;-82
2022/01/13 00:49:28;;;;;;;53.73;34.35;;;22.40;83.40;;;;;;1953440;70;21522;-81
2022/01/13 00:51:59;;;;;;;52.30;35.75;;;22.40;83.70;;;;;;1971081;71;21236;-80
2022/01/13 00:54:32;;;;;;;50.35;31.87;;;22.40;83.70;;;;;;1971653;70;21117;-81
2022/01/13 00:57:03;;;;;;;48.35;33.35;;;22.40;83.20;;;;;;1970011;70;21100;-80
2022/01/13 00:59:33;;;;;;;46.68;33.45;;;22.50;84.10;;;;;;1965764;70;21275;-81
2022/01/13 01:02:04;;;;;;;42.33;29.98;;;22.50;83.60;;;;;;1955619;70;21154;-81
2022/01/13 01:04:35;;;;;;;44.35;31.77;;;22.50;83.20;;;;;;1963280;70;21177;-81
2022/01/13 01:07:06;;;;;;;46.28;31.77;;;22.50;83.50;;;;;;1968549;71;21582;-81
2022/01/13 01:09:47;;;;;;;48.08;31.23;;;22.50;83.80;;;;;;1964630;71;21140;-81
2022/01/13 01:15:38;;;;;;;36.42;27.17;;;22.60;83.70;;;;;;1821900;76;21378;-84
2022/01/13 01:23:39;;;;;;;29.20;22.62;;;22.70;82.80;;;;;;1889766;74;21076;-81
2022/01/13 01:26:21;;;;;;;35.65;24.80;;;22.70;82.70;;;;;;1890221;73;21769;-81
2022/01/13 01:28:48;;;;;;;37.98;24.80;;;22.70;82.00;;;;;;1901446;73;21239;-81
2022/01/13 01:31:12;;;;;;;37.48;24.95;;;22.70;82.70;;;;;;1880489;74;21175;-82
2022/01/13 01:33:53;;;;;;;38.83;24.57;;;22.80;83.50;;;;;;1910015;74;21179;-82
2022/01/13 01:36:16;;;;;;;35.15;25.62;;;22.80;83.00;;;;;;1916470;73;21087;-82
2022/01/13 01:38:50;;;;;;;37.28;26.10;;;22.90;82.50;;;;;;1900822;73;21132;-82
2022/01/13 01:41:18;;;;;;;34.65;25.88;;;22.90;82.40;;;;;;1897411;73;21151;-81
2022/01/13 01:43:51;;;;;;;35.92;24.27;;;22.90;83.20;;;;;;1888520;73;21283;-82
2022/01/13 01:46:21;;;;;;;35.73;24.72;;;23.00;82.50;;;;;;1885345;73;21187;-80
2022/01/13 01:48:52;;;;;;;32.45;22.87;;;23.00;82.80;;;;;;1896357;74;21173;-81
2022/01/13 01:51:23;;;;;;;33.28;22.58;;;23.10;82.50;;;;;;1900260;72;21270;-81
2022/01/13 01:53:53;;;;;;;36.80;21.93;;;23.10;82.10;;;;;;1958678;72;21155;-81
2022/01/13 01:56:24;;;;;;;32.60;20.27;;;23.20;82.30;;;;;;1930427;70;21615;-81
2022/01/13 01:58:56;;;;;;;33.73;20.27;;;23.20;82.10;;;;;;1970302;71;21179;-71
2022/01/13 02:01:26;;;;;;;27.62;19.67;;;23.30;82.20;;;;;;1967621;71;21197;-71
2022/01/13 02:03:57;;;;;;;27.30;18.20;;;23.30;82.00;;;;;;1962866;70;21619;-71
2022/01/13 02:06:28;;;;;;;27.55;17.92;;;23.40;81.60;;;;;;1960086;71;21649;-70
2022/01/13 02:08:59;;;;;;;27.40;17.67;;;23.40;81.30;;;;;;1961368;71;21062;-71
2022/01/13 02:11:31;;;;;;;26.57;18.17;;;23.50;81.20;;;;;;1969533;71;21176;-71
2022/01/13 02:14:10;;;;;;;64.72;22.27;;;23.50;80.80;;;;;;1979447;70;21207;-71
2022/01/13 02:19:06;;;;;;;25.48;15.28;;;23.60;80.30;;;;;;1950068;71;21172;-71
2022/01/13 02:21:37;;;;;;;24.25;15.93;;;23.70;80.60;;;;;;1953409;71;21707;-71
2022/01/13 02:24:08;;;;;;;27.17;16.75;;;23.70;79.60;;;;;;1947609;72;21148;-71
2022/01/13 02:26:39;;;;;;;27.02;15.72;;;23.80;79.40;;;;;;1961486;72;21768;-72
2022/01/13 02:29:09;;;;;;;24.25;16.00;;;23.80;79.40;;;;;;1957393;70;22084;-72
2022/01/13 02:31:42;;;;;;;23.05;15.90;;;23.90;78.90;;;;;;1957383;72;21160;-71
2022/01/13 02:34:13;;;;;;;27.90;15.98;;;23.90;78.80;;;;;;1969270;71;21127;-71
2022/01/13 02:36:46;;;;;;;23.25;16.23;;;24.00;78.60;;;;;;1961997;71;21638;-73
2022/01/13 02:39:22;;;;;;;23.35;15.68;;;24.00;78.50;;;;;;1965195;71;21133;-71
2022/01/13 02:41:49;;;;;;;28.20;17.35;;;24.10;78.60;;;;;;1951882;71;21519;-72
2022/01/13 02:44:22;;;;;;;26.95;16.80;;;24.10;78.50;;;;;;1964811;71;21721;-72
2022/01/13 02:49:28;;;;;;;22.80;15.55;;;24.20;78.30;;;;;;1954091;71;21199;-71
2022/01/13 02:51:59;;;;;;;24.87;17.07;;;24.30;78.10;;;;;;1867362;73;21586;-72
2022/01/13 02:54:31;;;;;;;23.70;15.95;;;24.40;77.80;;;;;;1868208;74;21639;-72
2022/01/13 02:57:02;;;;;;;21.02;15.03;;;24.40;77.40;;;;;;1876200;74;21645;-72
2022/01/13 02:59:33;;;;;;;22.20;16.37;;;24.50;77.00;;;;;;1930941;72;21577;-72
2022/01/13 03:02:03;;;;;;;23.67;15.75;;;24.60;77.10;;;;;;1901221;73;21151;-72
2022/01/13 03:04:34;;;;;;;26.07;15.53;;;24.60;76.80;;;;;;1899909;72;21186;-72
2022/01/13 03:07:05;;;;;;;26.10;16.30;;;24.70;76.60;;;;;;1901285;72;21207;-72
2022/01/13 03:09:37;;;;;;;23.75;16.95;;;24.70;76.50;;;;;;1934655;71;21069;-72
2022/01/13 03:12:09;;;;;;;20.88;14.50;;;24.80;76.30;;;;;;1909145;72;21605;-72
2022/01/13 03:14:40;;;;;;;24.55;16.48;;;24.80;76.00;;;;;;1945547;71;21201;-72
2022/01/13 03:17:10;;;;;;;26.90;16.10;;;24.90;75.50;;;;;;1958118;71;21182;-72
2022/01/13 03:19:41;;;;;;;27.20;16.05;;;25.00;75.40;;;;;;1899671;73;21233;-70
2022/01/13 03:22:14;;;;;;;23.95;15.80;;;25.10;75.20;;;;;;1954752;71;21174;-70
2022/01/13 03:24:44;;;;;;;23.27;15.10;;;25.30;75.10;;;;;;1947781;70;21110;-70
2022/01/13 03:27:20;;;;;;;25.30;15.45;;;25.30;74.70;;;;;;1960653;71;21212;-70
2022/01/13 03:29:48;;;;;;;22.67;15.53;;;25.40;74.60;;;;;;1975682;71;21520;-71
2022/01/13 03:32:19;;;;;;;24.98;16.42;;;25.50;74.60;;;;;;1965386;71;21140;-71
2022/01/13 03:34:50;;;;;;;23.98;15.85;;;25.50;74.60;;;;;;1922329;73;21139;-70
2022/01/13 03:37:24;;;;;;;28.00;15.80;;;25.60;74.40;;;;;;1885266;74;21241;-71
2022/01/13 03:39:53;;;;;;;23.50;14.75;;;25.60;74.30;;;;;;1888516;74;21431;-71
2022/01/13 03:42:24;;;;;;;22.60;15.18;;;25.70;74.20;;;;;;1911187;73;21294;-71
2022/01/13 03:44:58;;;;;;;23.67;15.00;;;25.70;73.90;;;;;;1872174;74;21154;-71
2022/01/13 03:47:34;;;;;;;22.42;14.83;;;25.80;73.70;;;;;;1873534;74;21213;-71
2022/01/13 03:50:05;;;;;;;23.42;14.85;;;25.90;73.70;;;;;;1876296;75;21543;-71
2022/01/13 03:52:38;;;;;;;22.37;15.60;;;25.90;73.70;;;;;;1884310;74;21250;-70
2022/01/13 03:55:13;;;;;;;22.10;14.95;;;25.90;73.30;;;;;;1881213;74;21255;-70
2022/01/13 03:57:46;;;;;;;26.80;14.18;;;26.00;73.20;;;;;;1920054;72;21685;-69
2022/01/13 04:00:20;;;;;;;20.68;14.65;;;26.20;73.10;;;;;;1890585;73;21214;-70
2022/01/13 04:02:50;;;;;;;19.05;14.40;;;26.30;72.30;;;;;;1886934;73;21125;-71
2022/01/13 04:05:21;;;;;;;23.38;15.20;;;26.40;71.80;;;;;;1975509;70;21190;-69
2022/01/13 04:07:52;;;;;;;18.77;14.05;;;26.50;71.90;;;;;;1958145;72;21056;-68
2022/01/13 04:10:26;;;;;;;23.85;14.55;;;26.60;71.70;;;;;;1976349;71;21079;-69
2022/01/13 04:12:57;;;;;;;22.40;15.25;;;26.60;70.80;;;;;;1945233;71;21220;-70
2022/01/13 04:15:31;;;;;;;21.35;12.75;;;26.70;70.60;;;;;;1972372;71;21130;-71
2022/01/13 04:18:02;;;;;;;19.50;12.88;;;26.80;70.50;;;;;;1960618;71;21069;-70
2022/01/13 04:20:34;;;;;;;20.10;12.73;;;26.80;70.00;;;;;;1962312;71;21131;-71
2022/01/13 04:23:06;;;;;;;23.20;12.50;;;27.00;68.80;;;;;;1979513;71;21154;-70
2022/01/13 04:25:36;;;;;;;19.65;12.07;;;27.10;68.50;;;;;;1947625;70;21197;-70
2022/01/13 04:28:07;;;;;;;19.20;11.73;;;27.20;67.70;;;;;;1949888;72;21127;-72
2022/01/13 04:33:12;;;;;;;14.73;9.80;;;27.50;66.70;;;;;;1951755;71;21137;-71
2022/01/13 04:35:44;;;;;;;15.88;10.53;;;27.60;66.50;;;;;;1949119;70;21213;-71
2022/01/13 04:38:15;;;;;;;18.07;9.28;;;27.70;66.00;;;;;;1952047;71;21112;-73
2022/01/13 04:40:48;;;;;;;14.95;9.50;;;;;;;;;;1960462;70;21225;-73
2022/01/13 04:43:20;;;;;;;16.87;9.40;;;28.00;64.20;;;;;;1915547;73;21162;-71
2022/01/13 04:45:51;;;;;;;14.85;9.00;;;28.10;63.50;;;;;;1913845;72;21227;-70
2022/01/13 04:48:24;;;;;;;13.90;9.78;;;28.20;63.70;;;;;;1945708;71;21059;-71
2022/01/13 04:50:55;;;;;;;11.83;8.30;;;28.30;63.60;;;;;;1964152;71;21660;-70
2022/01/13 04:53:25;;;;;;;12.63;8.43;;;28.40;62.50;;;;;;1982451;71;21120;-70
2022/01/13 04:55:58;;;;;;;12.98;9.03;;;28.50;62.00;;;;;;1951830;70;21189;-71
2022/01/13 04:58:28;;;;;;;15.50;9.53;;;28.60;61.80;;;;;;1976661;70;21105;-73
2022/01/13 05:00:59;;;;;;;14.07;9.53;;;28.60;61.30;;;;;;1883543;74;21156;-71
2022/01/13 05:03:30;;;;;;;13.45;9.10;;;28.80;60.90;;;;;;1887686;73;21117;-70
2022/01/13 05:06:00;;;;;;;13.85;8.75;;;28.90;61.00;;;;;;1958181;71;21150;-72
2022/01/13 05:08:32;;;;;;;13.43;8.88;;;29.00;60.00;;;;;;1953159;70;21681;-70
2022/01/13 05:11:02;;;;;;;14.07;9.80;;;29.00;59.80;;;;;;1921149;73;21224;-70
2022/01/13 05:13:33;;;;;;;12.03;9.25;;;29.10;59.80;;;;;;1919149;73;21789;-70
2022/01/13 05:16:06;;;;;;;12.58;9.40;;;29.10;59.30;;;;;;1905193;73;21708;-70
2022/01/13 05:18:50;;;;;;;12.00;9.38;;;29.10;59.40;;;;;;1910381;73;21150;-69
2022/01/13 05:21:23;;;;;;;14.25;8.58;;;29.20;58.80;;;;;;1947016;72;21173;-71
2022/01/13 05:23:44;;;;;;;13.30;8.60;;;29.20;58.70;;;;;;1940801;71;21614;-69
2022/01/13 05:26:15;;;;;;;11.25;8.40;;;29.20;58.30;;;;;;1943259;71;21899;-70
2022/01/13 05:28:46;;;;;;;11.88;8.43;;;29.20;59.40;;;;;;1980617;70;21165;-70
2022/01/13 05:31:17;;;;;;;15.70;8.88;;;29.10;58.80;;;;;;1967817;71;21599;-69
2022/01/13 05:33:47;;;;;;;11.38;8.65;;;29.20;59.10;;;;;;1963078;70;21182;-69
2022/01/13 05:36:18;;;;;;;13.45;8.90;;;29.20;58.30;;;;;;1953328;72;21589;-71
2022/01/13 05:38:50;;;;;;;16.82;8.93;;;29.20;58.80;;;;;;1946870;71;21098;-69
2022/01/13 05:41:21;;;;;;;11.22;8.30;;;29.20;58.00;;;;;;1946559;71;21180;-70
2022/01/13 05:43:52;;;;;;;15.05;9.30;;;29.30;58.30;;;;;;1940082;70;21065;-71
2022/01/13 05:46:22;;;;;;;13.22;8.63;;;29.30;58.00;;;;;;1960707;71;21080;-71
2022/01/13 05:48:56;;;;;;;12.07;8.43;;;29.40;57.50;;;;;;1972306;70;21147;-71
2022/01/13 05:51:26;;;;;;;13.88;8.78;;;29.50;56.90;;;;;;1965790;71;21070;-69
2022/01/13 05:53:56;;;;;;;12.10;8.50;;;29.50;56.40;;;;;;1978330;71;21146;-70
2022/01/13 05:56:27;;;;;;;12.50;8.90;;;29.70;58.00;;;;;;1943273;72;21560;-70
2022/01/13 05:58:57;;;;;;;11.75;9.08;;;29.80;55.30;;;;;;1940658;71;21198;-71
2022/01/13 06:01:28;;;;;;;15.28;8.95;;;;;;;;;;1905693;72;21104;-70
2022/01/13 06:03:59;;;;;;;14.43;9.85;;;29.90;54.50;;;;;;1930152;72;21244;-72
2022/01/13 06:06:29;;;;;;;13.18;8.63;;;30.00;54.20;;;;;;1915540;72;21150;-71
2022/01/13 06:09:00;;;;;;;11.93;8.90;;;30.10;55.60;;;;;;1912545;73;21618;-71
2022/01/13 06:11:38;;;;;;;11.38;9.18;;;30.20;55.60;;;;;;1908446;73;21649;-70
2022/01/13 06:14:03;;;;;;;16.42;10.13;;;30.30;54.00;;;;;;1920227;73;21116;-70
2022/01/13 06:16:35;;;;;;;12.10;8.65;;;30.30;54.70;;;;;;1926762;73;21159;-71
2022/01/13 06:19:05;;;;;;;12.20;7.83;;;30.30;53.90;;;;;;1882013;73;21200;-70
2022/01/13 06:21:36;;;;;;;11.33;9.08;;;30.30;52.60;;;;;;1931620;72;21137;-71
2022/01/13 06:24:07;;;;;;;12.28;8.88;;;30.30;52.80;;;;;;1954209;72;21216;-71
2022/01/13 06:26:38;;;;;;;12.85;9.13;;;30.30;53.50;;;;;;1957764;71;21158;-71
2022/01/13 06:29:09;;;;;;;13.05;9.55;;;30.20;53.70;;;;;;1958032;72;21182;-71
2022/01/13 06:31:40;;;;;;;17.65;9.10;;;30.20;53.60;;;;;;1946476;72;21206;-70
2022/01/13 06:34:11;;;;;;;12.82;9.25;;;30.20;53.60;;;;;;1926067;71;21275;-70
2022/01/13 06:36:42;;;;;;;12.68;9.18;;;30.20;54.00;;;;;;1963577;71;21672;-70
2022/01/13 06:39:12;;;;;;;18.73;8.93;;;30.10;54.10;;;;;;1966077;72;21220;-70
2022/01/13 06:41:45;;;;;;;9.80;8.15;;;30.10;55.00;;;;;;1944419;71;21136;-71
2022/01/13 06:44:15;;;;;;;12.98;8.68;;;30.10;54.30;;;;;;1963261;71;21589;-69
2022/01/13 06:46:46;;;;;;;12.47;8.73;;;30.00;54.20;;;;;;1946153;72;21523;-71
2022/01/13 06:49:16;;;;;;;13.18;9.00;;;29.90;54.00;;;;;;1963803;70;21784;-70
2022/01/13 06:51:47;;;;;;;11.05;8.33;;;29.80;53.50;;;;;;1965803;71;21208;-70
2022/01/13 06:54:18;;;;;;;11.78;8.35;;;29.80;54.40;;;;;;1931544;72;21174;-70
2022/01/13 06:56:48;;;;;;;10.23;7.72;;;29.70;54.80;;;;;;1952948;71;21144;-71
2022/01/13 06:59:20;;;;;;;11.73;7.87;;;29.70;55.00;;;;;;1941440;72;21583;-71
2022/01/13 07:01:51;;;;;;;12.95;9.25;;;29.70;54.90;;;;;;1954014;71;21068;-71
2022/01/13 07:04:22;;;;;;;11.88;8.33;;;29.70;55.50;;;;;;1973269;72;21131;-70
2022/01/13 07:06:53;;;;;;;11.38;8.30;;;29.70;55.10;;;;;;1957674;71;21633;-71
2022/01/13 07:09:24;;;;;;;10.35;7.87;;;29.70;54.90;;;;;;1987630;70;21215;-70
2022/01/13 07:11:54;;;;;;;15.83;8.63;;;29.70;55.10;;;;;;1897385;73;21538;-70
2022/01/13 07:14:25;;;;;;;11.95;9.35;;;29.70;54.20;;;;;;1893974;73;21785;-70
2022/01/13 07:16:56;;;;;;;11.03;8.15;;;29.60;54.50;;;;;;1962286;70;21684;-70
2022/01/13 07:19:27;;;;;;;12.73;8.25;;;29.50;53.70;;;;;;1921124;72;21144;-71
2022/01/13 07:21:58;;;;;;;10.85;8.05;;;29.50;54.60;;;;;;1964123;71;21249;-71
2022/01/13 07:24:28;;;;;;;14.23;9.63;;;29.50;54.60;;;;;;1962995;71;21895;-71
2022/01/13 07:26:59;;;;;;;12.13;9.23;;;29.50;54.60;;;;;;1949773;71;21146;-70
2022/01/13 07:29:29;;;;;;;13.00;8.65;;;29.60;54.60;;;;;;1959425;70;21098;-71
2022/01/13 07:32:01;;;;;;;11.33;8.13;;;29.60;54.80;;;;;;1964103;70;22277;-70
2022/01/13 07:34:31;;;;;;;15.32;8.40;;;29.60;54.60;;;;;;1946689;71;21656;-70
2022/01/13 07:37:02;;;;;;;10.93;8.00;;;29.60;53.90;;;;;;1973188;71;21195;-71
2022/01/13 07:39:35;;;;;;;13.38;8.35;;;29.60;54.20;;;;;;1952898;71;21253;-71
2022/01/13 07:42:06;;;;;;;16.15;7.75;;;29.60;53.90;;;;;;1955271;71;21164;-70
2022/01/13 07:44:37;;;;;;;9.10;7.55;;;29.60;54.40;;;;;;1953494;71;21174;-70
2022/01/13 07:47:08;;;;;;;11.88;7.97;;;29.60;54.60;;;;;;1926189;73;21116;-70
2022/01/13 07:49:38;;;;;;;10.08;7.17;;;29.50;55.40;;;;;;1945497;71;21185;-69
2022/01/13 07:52:09;;;;;;;12.55;8.08;;;29.40;54.90;;;;;;1956447;72;21213;-70
2022/01/13 07:54:39;;;;;;;13.85;8.10;;;29.40;55.00;;;;;;1974591;71;21243;-70
2022/01/13 07:57:10;;;;;;;11.88;7.97;;;29.30;55.20;;;;;;1949033;72;21139;-70
2022/01/13 07:59:41;;;;;;;12.80;8.05;;;29.30;54.80;;;;;;1945705;72;21191;-71
2022/01/13 08:02:11;;;;;;;10.23;8.03;;;29.10;54.50;;;;;;1905566;73;21080;-70
2022/01/13 08:04:42;;;;;;;9.48;7.65;;;29.10;54.60;;;;;;1967463;71;21135;-69
2022/01/13 08:07:12;;;;;;;12.37;9.20;;;29.00;54.80;;;;;;1956371;71;21591;-69
2022/01/13 08:09:44;;;;;;;10.00;7.90;;;29.00;55.60;;;;;;1970240;71;21133;-71
2022/01/13 08:12:15;;;;;;;10.48;8.35;;;29.00;55.10;;;;;;1923911;72;21261;-70
2022/01/13 08:14:47;;;;;;;12.73;7.40;;;29.00;55.00;;;;;;1924633;72;21130;-70
2022/01/13 08:19:54;;;;;;;;;;;29.30;54.40;;;;;;1957408;72;21632;-69
2022/01/13 08:22:24;;;;;;;9.33;7.17;;;29.40;56.00;;;;;;1967932;71;20241;-69
2022/01/13 08:24:55;;;;;;;9.45;7.05;;;29.40;54.90;;;;;;1974061;71;21229;-70
2022/01/13 08:27:25;;;;;;;11.57;6.53;;;29.40;54.50;;;;;;1930323;73;21224;-69
2022/01/13 08:29:56;;;;;;;10.60;7.62;;;29.30;54.60;;;;;;1958743;71;21135;-70
2022/01/13 08:32:26;;;;;;;15.63;8.13;;;29.30;54.70;;;;;;1962481;71;21053;-71
2022/01/13 08:34:57;;;;;;;10.53;7.17;;;29.30;53.90;;;;;;1954257;72;21601;-70
2022/01/13 08:37:28;;;;;;;12.65;7.33;;;29.30;54.20;;;;;;1911069;73;21165;-70
2022/01/13 08:39:59;;;;;;;12.25;7.83;;;29.20;54.10;;;;;;1954894;71;21092;-69
2022/01/13 08:42:29;;;;;;;11.55;9.43;;;29.20;53.50;;;;;;1985664;70;21139;-70
2022/01/13 08:45:01;;;;;;;13.18;7.33;;;29.20;54.00;;;;;;1966337;72;21168;-70
2022/01/13 08:47:32;;;;;;;10.45;8.13;;;29.10;53.80;;;;;;1958900;72;21127;-71
2022/01/13 08:50:06;;;;;;;10.75;6.60;;;29.20;53.60;;;;;;1957835;72;21128;-70
2022/01/13 08:52:38;;;;;;;10.53;6.95;;;29.20;53.40;;;;;;1962841;71;21167;-70
2022/01/13 08:55:10;;;;;;;10.75;7.33;;;29.20;53.40;;;;;;1967889;71;21223;-71
2022/01/13 08:57:40;;;;;;;11.38;7.40;;;29.20;53.20;;;;;;1959578;72;21644;-70
2022/01/13 09:00:12;;;;;;;10.48;7.12;;;29.20;52.80;;;;;;1929986;72;21544;-71
2022/01/13 09:02:44;;;;;;;9.18;6.92;;;29.30;53.00;;;;;;1907243;73;21189;-69
2022/01/13 09:05:17;;;;;;;9.93;6.80;;;29.30;53.10;;;;;;1895650;73;21199;-70
2022/01/13 09:07:48;;;;;;;11.83;7.60;;;29.40;53.20;;;;;;1898562;73;21229;-70
2022/01/13 09:10:20;;;;;;;9.88;7.12;;;29.30;53.40;;;;;;1885542;74;21112;-70
2022/01/13 09:12:50;;;;;;;8.38;6.75;;;29.40;53.00;;;;;;1875393;74;21207;-70
2022/01/13 09:15:34;;;;;;;13.32;7.95;;;29.40;53.10;;;;;;1910195;73;21209;-70
2022/01/13 09:17:53;;;;;;;11.88;7.10;;;29.40;52.50;;;;;;1925716;72;21240;-70
2022/01/13 09:20:24;;;;;;;11.38;7.85;;;29.40;53.00;;;;;;1956788;70;21162;-70
2022/01/13 09:22:55;;;;;;;12.03;7.62;;;29.50;53.10;;;;;;1926196;72;21175;-70
2022/01/13 09:25:27;;;;;;;10.20;6.95;;;29.40;52.90;;;;;;1924043;72;21122;-70
2022/01/13 09:27:58;;;;;;;11.85;7.12;;;29.40;52.70;;;;;;1887289;74;21162;-70
2022/01/13 09:30:29;;;;;;;12.10;8.13;;;29.40;53.10;;;;;;1889286;72;21127;-70
2022/01/13 09:33:00;;;;;;;9.63;7.53;;;29.30;53.10;;;;;;1889396;73;21201;-72
2022/01/13 09:35:31;;;;;;;10.45;7.30;;;29.30;52.80;;;;;;1880844;73;21150;-70
2022/01/13 09:38:03;;;;;;;11.45;7.20;;;29.30;53.00;;;;;;1891284;73;22248;-70
2022/01/13 09:40:34;;;;;;;9.33;7.50;;;29.30;52.60;;;;;;1957849;70;21069;-72
2022/01/13 09:43:05;;;;;;;13.90;8.23;;;29.30;52.70;;;;;;1962717;72;21167;-71
2022/01/13 09:45:37;;;;;;;9.23;7.12;;;29.30;52.60;;;;;;1926966;73;21143;-72
2022/01/13 09:48:07;;;;;;;10.72;7.35;;;29.30;53.10;;;;;;1920503;72;21112;-71
2022/01/13 09:50:48;;;;;;;9.88;7.72;;;29.20;52.80;;;;;;1917010;73;21864;-71
2022/01/13 09:53:18;;;;;;;11.18;6.90;;;29.20;53.30;;;;;;1957482;72;22429;-70
2022/01/13 09:55:49;;;;;;;8.88;6.78;;;29.20;53.80;;;;;;1976586;71;21104;-72
2022/01/13 09:58:20;;;;;;;10.25;7.22;;;29.10;53.30;;;;;;1966985;71;21085;-71
2022/01/13 10:00:51;;;;;;;11.80;6.90;;;29.10;52.80;;;;;;1958215;71;21242;-71
2022/01/13 10:03:26;;;;;;;10.82;6.92;;;29.00;52.50;;;;;;1953722;70;21261;-72
2022/01/13 10:05:58;;;;;;;11.20;7.03;;;29.00;52.80;;;;;;1966416;71;21641;-73
2022/01/13 10:08:31;;;;;;;9.43;6.85;;;29.00;52.90;;;;;;1924952;72;21073;-71
2022/01/13 10:11:04;;;;;;;13.30;7.12;;;28.90;52.90;;;;;;1946810;70;21067;-72
2022/01/13 10:13:50;;;;;;;9.55;6.60;;;28.90;53.10;;;;;;1946559;71;21648;-73
2022/01/13 10:18:42;;;;;;;12.90;7.12;;;28.80;53.10;;;;;;1982162;72;21643;-70
2022/01/13 10:21:15;;;;;;;14.35;7.33;;;28.80;53.00;;;;;;1954276;71;21224;-70
2022/01/13 10:23:48;;;;;;;11.57;7.45;;;28.70;53.40;;;;;;1957952;70;21202;-70
2022/01/13 10:26:19;;;;;;;10.40;8.13;;;28.70;53.50;;;;;;1971042;70;21592;-70
2022/01/13 10:28:52;;;;;;;11.35;7.70;;;28.70;53.70;;;;;;1955518;72;21069;-70
2022/01/13 10:31:24;;;;;;;9.70;7.67;;;28.60;53.90;;;;;;1947281;70;21283;-70
2022/01/13 10:33:57;;;;;;;13.40;8.25;;;28.60;54.00;;;;;;1957963;70;21200;-70
2022/01/13 10:36:28;;;;;;;11.43;7.03;;;28.60;54.10;;;;;;1958036;70;21144;-70
2022/01/13 10:38:59;;;;;;;12.55;8.80;;;28.50;54.40;;;;;;1965901;71;21185;-70
2022/01/13 10:44:05;;;;;;;11.38;7.60;;;28.40;54.60;;;;;;1952464;71;21256;-70
2022/01/13 10:46:38;;;;;;;19.57;8.45;;;28.40;54.70;;;;;;1957639;71;21171;-70
2022/01/13 10:49:10;;;;;;;13.90;8.85;;;28.30;54.90;;;;;;1955329;72;21033;-70
2022/01/13 10:51:41;;;;;;;13.03;8.63;;;28.30;55.00;;;;;;1966126;71;21602;-69
2022/01/13 10:54:14;;;;;;;19.05;11.85;;;28.30;55.20;;;;;;1976488;70;21136;-70
2022/01/13 10:56:44;;;;;;;18.87;11.57;;;28.30;55.40;;;;;;1956586;72;21183;-69
2022/01/13 10:59:18;;;;;;;16.67;10.88;;;28.20;55.50;;;;;;1918078;72;21130;-70
2022/01/13 11:01:48;;;;;;;14.60;10.75;;;28.20;55.60;;;;;;1927436;71;21055;-70
2022/01/13 11:04:20;;;;;;;16.67;10.23;;;28.20;55.90;;;;;;1956902;72;21160;-70
2022/01/13 11:06:52;;;;;;;15.45;10.03;;;28.10;56.00;;;;;;1962627;71;21228;-71
2022/01/13 11:09:25;;;;;;;21.62;11.28;;;28.10;55.90;;;;;;1968035;71;21592;-70
2022/01/13 11:11:58;;;;;;;18.73;12.05;;;28.00;56.00;;;;;;1966346;71;21138;-70
2022/01/13 11:14:28;;;;;;;18.10;11.55;;;28.00;56.20;;;;;;1963298;72;21073;-71
2022/01/13 11:17:00;;;;;;;19.35;11.35;;;28.00;56.30;;;;;;1980709;71;21118;-70
2022/01/13 11:19:32;;;;;;;23.52;13.30;;;27.90;56.40;;;;;;1945361;71;21068;-70
2022/01/13 11:22:03;;;;;;;18.65;12.50;;;27.90;56.40;;;;;;1963764;71;21237;-70
2022/01/13 11:24:34;;;;;;;25.05;13.40;;;27.80;57.30;;;;;;1948504;72;21729;-70
2022/01/13 11:27:06;;;;;;;22.60;13.03;;;27.80;56.90;;;;;;1971955;71;21202;-70
2022/01/13 11:29:39;;;;;;;23.67;14.00;;;27.80;57.00;;;;;;1958784;71;21048;-70
2022/01/13 11:32:11;;;;;;;22.20;13.83;;;27.70;57.10;;;;;;1971335;70;21494;-70
2022/01/13 11:34:42;;;;;;;20.75;14.30;;;27.70;57.10;;;;;;1965950;71;21103;-70
2022/01/13 11:37:13;;;;;;;31.73;21.27;;;27.70;57.30;;;;;;1965157;71;21133;-70
2022/01/13 11:39:46;;;;;;;23.95;14.90;;;27.70;57.60;;;;;;1881266;74;21156;-71
2022/01/13 11:42:18;;;;;;;21.23;14.05;;;27.70;57.50;;;;;;1973188;71;21189;-71
2022/01/13 11:44:51;;;;;;;21.90;14.18;;;27.70;57.50;;;;;;1952446;70;21614;-71
2022/01/13 11:47:25;;;;;;;22.85;14.20;;;27.60;57.50;;;;;;1922767;73;21576;-71
2022/01/13 11:50:03;;;;;;;22.30;14.15;;;27.60;57.70;;;;;;1941075;71;21169;-70
2022/01/13 11:52:40;;;;;;;24.35;14.55;;;27.60;57.90;;;;;;1942749;72;21112;-71
2022/01/13 11:55:05;;;;;;;22.00;14.25;;;27.50;58.00;;;;;;1938936;72;21656;-70
2022/01/13 11:57:38;;;;;;;25.97;14.93;;;27.50;58.20;;;;;;1944845;72;21135;-70
2022/01/13 12:00:11;;;;;;;22.05;14.87;;;27.40;58.30;;;;;;1955303;72;21694;-71
2022/01/13 12:02:44;;;;;;;26.95;15.55;;;27.40;58.50;;;;;;1891378;73;21161;-71
2022/01/13 12:05:18;;;;;;;24.12;15.50;;;27.40;58.70;;;;;;1973301;71;21202;-70
2022/01/13 12:07:50;;;;;;;22.02;15.13;;;27.40;58.70;;;;;;1980441;70;21596;-70
2022/01/13 12:10:24;;;;;;;24.82;15.25;;;27.40;58.80;;;;;;1974522;71;21686;-71
2022/01/13 12:12:55;;;;;;;25.08;15.20;;;27.40;58.80;;;;;;1944330;72;21232;-71
2022/01/13 12:15:29;;;;;;;21.93;14.95;;;27.40;58.80;;;;;;1967040;72;21228;-71
2022/01/13 12:18:05;;;;;;;25.75;15.35;;;27.30;58.70;;;;;;1961231;71;21615;-70
2022/01/13 12:20:55;;;;;;;25.02;16.48;;;27.40;58.80;;;;;;1965578;70;21065;-70
2022/01/13 12:23:16;;;;;;;28.40;16.85;;;27.40;58.90;;;;;;1966716;71;21085;-71
2022/01/13 12:25:45;;;;;;;28.02;16.55;;;27.30;58.80;;;;;;1957896;71;21549;-70
2022/01/13 12:28:18;;;;;;;25.12;17.02;;;27.30;58.90;;;;;;1959859;71;21068;-69
2022/01/13 12:30:49;;;;;;;25.82;17.00;;;27.30;58.90;;;;;;1948099;71;21147;-70
2022/01/13 12:33:22;;;;;;;22.20;16.57;;;27.30;59.10;;;;;;1980443;70;21097;-70
2022/01/13 12:35:53;;;;;;;30.68;18.32;;;27.30;59.30;;;;;;1924723;72;21215;-72
2022/01/13 12:38:26;;;;;;;32.60;19.92;;;27.20;59.40;;;;;;1890421;74;21689;-70
2022/01/13 12:41:04;;;;;;;30.68;19.50;;;27.20;59.60;;;;;;1932373;72;21654;-71
2022/01/13 12:46:10;;;;;;;47.03;23.35;;;27.20;59.80;;;;;;1890368;73;21215;-71
2022/01/13 12:48:44;;;;;;;33.18;21.27;;;27.10;59.90;;;;;;1866941;74;21222;-70
2022/01/13 12:51:20;;;;;;;34.35;21.23;;;27.10;60.00;;;;;;1876789;74;21761;-70
2022/01/13 12:53:51;;;;;;;33.18;20.52;;;27.10;60.10;;;;;;1947095;71;21158;-70
2022/01/13 12:56:24;;;;;;;31.95;20.37;;;27.00;60.10;;;;;;1936849;72;21582;-70
2022/01/13 12:58:57;;;;;;;34.43;21.12;;;27.10;60.10;;;;;;1958963;71;21107;-69
2022/01/13 13:01:30;;;;;;;37.25;22.37;;;27.10;60.20;;;;;;1956473;71;21187;-71
2022/01/13 13:04:04;;;;;;;38.10;21.55;;;27.00;60.20;;;;;;1958585;71;21072;-70
2022/01/13 13:06:37;;;;;;;33.35;20.65;;;27.10;61.30;;;;;;1966549;71;21073;-71
2022/01/13 13:09:11;;;;;;;30.80;20.52;;;27.10;60.40;;;;;;1973873;71;21126;-71
2022/01/13 13:11:44;;;;;;;40.15;21.65;;;27.00;60.40;;;;;;1955824;71;21130;-71
2022/01/13 13:14:19;;;;;;;35.92;20.00;;;27.00;60.10;;;;;;1976932;71;21587;-71
2022/01/13 13:16:53;;;;;;;32.40;19.00;;;27.00;59.90;;;;;;1943909;72;21586;-71
2022/01/13 13:19:23;;;;;;;30.20;17.55;;;27.00;59.70;;;;;;1957071;72;21181;-70
2022/01/13 13:21:55;;;;;;;26.60;17.77;;;27.00;59.30;;;;;;1959662;71;21148;-70
2022/01/13 13:24:26;;;;;;;27.77;17.23;;;27.00;59.20;;;;;;1972714;71;21218;-70
2022/01/13 13:26:57;;;;;;;36.42;17.57;;;27.00;59.20;;;;;;1982835;71;21190;-71